Time;durP1;ratioP1;P1;durP2;ratioP2;P2;SDS_P1;SDS_P2;PMS_P1;PMS_P2;Temp;Humidity;BMP_temperature;BMP_pressure;BME280_temperature;BME280_humidity;BME280_pressure;Samples;Min_cycle;Max_cycle;Signal;HPM_P1;HPM_P2
2023/07/29 00:00:47;;;;;;;9.38;4.78;;;19.20;1.00;;;;;;4984134;28;20057;-65
2023/07/29 00:03:13;;;;;;;9.50;4.40;;;18.30;5.20;;;;;;4978919;28;20034;-66
2023/07/29 00:05:39;;;;;;;10.13;4.03;;;18.20;12.20;;;;;;4987696;28;20400;-65
2023/07/29 00:08:05;;;;;;;9.77;4.15;;;18.80;8.70;;;;;;4983269;28;20039;-66
2023/07/29 00:10:32;;;;;;;10.15;4.85;;;18.40;17.40;;;;;;4982094;28;20061;-65
2023/07/29 00:12:58;;;;;;;8.88;4.05;;;18.70;26.70;;;;;;4986406;28;20113;-65
2023/07/29 00:15:24;;;;;;;10.60;4.82;;;18.50;35.00;;;;;;4986295;28;20165;-65
2023/07/29 00:17:50;;;;;;;10.00;4.80;;;18.60;37.70;;;;;;4974565;28;20125;-65
2023/07/29 00:20:16;;;;;;;13.48;6.80;;;18.40;42.60;;;;;;4982718;28;20046;-65
2023/07/29 00:22:42;;;;;;;12.38;7.25;;;18.10;46.40;;;;;;4983407;28;20485;-65
2023/07/29 00:25:08;;;;;;;28.30;19.40;;;18.70;52.90;;;;;;4991019;28;20034;-65
2023/07/29 00:27:33;;;;;;;13.93;9.90;;;18.80;59.60;;;;;;4974645;28;20100;-65
2023/07/29 00:29:59;;;;;;;17.08;11.90;;;18.20;58.10;;;;;;4986688;28;20051;-65
2023/07/29 00:32:27;;;;;;;13.00;9.65;;;18.70;70.50;;;;;;4980518;28;20043;-65
2023/07/29 00:34:52;;;;;;;14.63;6.45;;;18.80;78.30;;;;;;4990048;28;20046;-64
2023/07/29 00:37:18;;;;;;;13.48;6.57;;;18.60;76.80;;;;;;4980290;28;20042;-65
2023/07/29 00:39:44;;;;;;;9.25;5.32;;;18.20;82.00;;;;;;4979680;28;20086;-65
2023/07/29 00:42:09;;;;;;;11.13;5.18;;;18.00;91.10;;;;;;4984671;28;20049;-65
2023/07/29 00:44:35;;;;;;;9.68;5.22;;;18.60;91.60;;;;;;4964833;28;20038;-65
2023/07/29 00:47:04;;;;;;;9.10;5.18;;;18.10;97.60;;;;;;4992311;28;20037;-65
2023/07/29 00:49:31;;;;;;;10.80;4.72;;;18.70;97.30;;;;;;4984300;28;20034;-65
2023/07/29 00:51:56;;;;;;;11.05;4.82;;;18.60;96.80;;;;;;4993241;28;20070;-65
2023/07/29 00:54:22;;;;;;;8.65;4.45;;;18.30;99.60;;;;;;4988342;28;20061;-65
2023/07/29 00:56:48;;;;;;;10.45;4.90;;;17.90;99.90;;;;;;4982620;28;20089;-65
2023/07/29 00:59:14;;;;;;;10.57;5.88;;;18.60;99.90;;;;;;4980442;28;20038;-65
2023/07/29 01:01:40;;;;;;;10.65;5.38;;;18.50;99.90;;;;;;4977053;28;20042;-65
2023/07/29 01:04:06;;;;;;;8.50;5.30;;;18.30;99.90;;;;;;4990084;28;20053;-66
2023/07/29 01:06:56;;;;;;;11.80;5.65;;;18.00;99.90;;;;;;4990917;28;20050;-66
2023/07/29 01:09:53;;;;;;;11.80;6.63;;;18.30;99.90;;;;;;4993408;28;20053;-65
2023/07/29 01:12:32;;;;;;;11.30;5.88;;;18.70;99.90;;;;;;4995755;28;20124;-65
2023/07/29 01:15:18;;;;;;;10.20;5.68;;;18.20;99.90;;;;;;4978543;28;20043;-65
2023/07/29 01:18:09;;;;;;;11.43;5.70;;;17.70;99.90;;;;;;4987697;28;20182;-65
2023/07/29 01:20:38;;;;;;;12.65;5.57;;;18.70;99.90;;;;;;4975189;28;20319;-65
2023/07/29 01:23:04;;;;;;;11.85;5.93;;;18.30;99.90;;;;;;4980464;28;20045;-65
2023/07/29 01:25:30;;;;;;;10.02;6.07;;;17.80;99.90;;;;;;4976822;28;20047;-65
2023/07/29 01:27:56;;;;;;;11.45;5.60;;;18.00;99.90;;;;;;4981572;28;20114;-65
2023/07/29 01:30:25;;;;;;;11.35;5.47;;;18.50;99.90;;;;;;4980467;28;20070;-65
2023/07/29 01:33:07;;;;;;;9.27;5.47;;;18.70;99.90;;;;;;4984516;28;20065;-65
2023/07/29 01:35:40;;;;;;;10.98;6.35;;;17.90;99.90;;;;;;4982782;28;20053;-65
2023/07/29 01:38:13;;;;;;;10.40;5.88;;;17.80;99.90;;;;;;4987092;28;20052;-65
2023/07/29 01:40:40;;;;;;;11.63;6.00;;;18.20;99.90;;;;;;4980573;28;20058;-65
2023/07/29 01:43:08;;;;;;;8.80;5.57;;;18.20;99.90;;;;;;4983604;28;20084;-65
2023/07/29 01:45:37;;;;;;;10.15;5.57;;;17.90;99.90;;;;;;4990878;28;20042;-66
2023/07/29 01:48:07;;;;;;;10.60;6.45;;;18.20;99.90;;;;;;4975119;28;20038;-65
2023/07/29 01:50:33;;;;;;;10.90;6.70;;;18.40;99.90;;;;;;4983725;28;20161;-65
2023/07/29 01:52:59;;;;;;;12.02;7.13;;;18.50;99.90;;;;;;4985404;28;20348;-65
2023/07/29 01:55:25;;;;;;;14.23;7.18;;;17.70;99.90;;;;;;4989492;28;20528;-65
2023/07/29 01:57:51;;;;;;;10.38;6.07;;;18.50;99.90;;;;;;4992129;28;20419;-65
2023/07/29 02:00:18;;;;;;;11.27;5.90;;;18.60;99.90;;;;;;4990017;28;20514;-65
2023/07/29 02:02:44;;;;;;;13.13;6.25;;;18.40;99.90;;;;;;4988666;28;20475;-65
2023/07/29 02:05:10;;;;;;;13.68;5.93;;;18.70;99.90;;;;;;4979610;28;20128;-65
2023/07/29 02:07:36;;;;;;;12.15;5.63;;;18.30;99.90;;;;;;4991060;28;20069;-65
2023/07/29 02:10:01;;;;;;;10.55;5.63;;;17.80;99.90;;;;;;4987435;28;20395;-65
2023/07/29 02:12:28;;;;;;;10.63;5.50;;;;;;;;;;4983988;28;20038;-65
2023/07/29 02:14:54;;;;;;;9.82;5.18;;;17.90;99.90;;;;;;4988214;28;20050;-66
2023/07/29 02:17:19;;;;;;;9.73;5.10;;;18.10;99.90;;;;;;4991575;28;20514;-66
2023/07/29 02:19:45;;;;;;;9.30;4.68;;;18.00;99.90;;;;;;4991647;28;20042;-65
2023/07/29 02:22:14;;;;;;;11.40;4.93;;;18.80;99.90;;;;;;4992265;28;20088;-65
2023/07/29 02:24:39;;;;;;;11.02;4.95;;;18.20;99.90;;;;;;4983722;28;20053;-65
2023/07/29 02:27:05;;;;;;;9.48;4.60;;;18.30;99.90;;;;;;4989779;28;20674;-65
2023/07/29 02:29:32;;;;;;;9.43;4.82;;;18.60;99.90;;;;;;4988985;28;20064;-66
2023/07/29 02:31:59;;;;;;;11.55;5.22;;;18.60;99.90;;;;;;4987235;28;20485;-65
2023/07/29 02:34:24;;;;;;;7.88;4.22;;;17.90;99.90;;;;;;4991699;28;20503;-65
2023/07/29 02:36:50;;;;;;;8.55;4.65;;;18.90;99.90;;;;;;4985036;28;20065;-65
2023/07/29 02:39:16;;;;;;;10.85;5.32;;;17.70;99.90;;;;;;4991723;28;20381;-65
2023/07/29 02:41:41;;;;;;;10.00;4.85;;;17.50;99.90;;;;;;4990964;28;20078;-65
2023/07/29 02:44:07;;;;;;;10.75;5.03;;;17.80;99.90;;;;;;4982688;28;20045;-65
2023/07/29 02:46:33;;;;;;;12.05;5.30;;;18.20;99.90;;;;;;4987211;28;20072;-65
2023/07/29 02:48:59;;;;;;;15.75;5.75;;;17.70;99.90;;;;;;4983645;28;20101;-65
2023/07/29 02:51:24;;;;;;;11.18;5.35;;;18.00;99.90;;;;;;4987724;28;20413;-65
2023/07/29 02:53:50;;;;;;;9.43;4.72;;;17.80;99.90;;;;;;4987428;28;20038;-65
2023/07/29 02:56:16;;;;;;;11.98;5.22;;;18.00;99.90;;;;;;4986156;28;20049;-66
2023/07/29 02:58:41;;;;;;;8.35;4.65;;;18.40;99.90;;;;;;4988632;28;20117;-65
2023/07/29 03:01:07;;;;;;;11.98;5.18;;;18.10;99.90;;;;;;4980023;28;20101;-66
2023/07/29 03:03:33;;;;;;;13.48;5.05;;;17.80;99.90;;;;;;4986606;28;20069;-65
2023/07/29 03:06:04;;;;;;;11.13;5.07;;;17.70;99.90;;;;;;4990445;28;20162;-65
2023/07/29 03:08:29;;;;;;;9.80;4.25;;;17.60;99.90;;;;;;4990298;28;20042;-65
2023/07/29 03:10:56;;;;;;;10.10;4.15;;;17.70;99.90;;;;;;4989470;28;20046;-65
2023/07/29 03:13:22;;;;;;;9.57;4.10;;;17.50;99.90;;;;;;4987028;28;20116;-65
2023/07/29 03:15:48;;;;;;;11.38;4.22;;;17.70;99.90;;;;;;4989799;28;20049;-65
2023/07/29 03:18:15;;;;;;;12.40;4.63;;;17.40;99.90;;;;;;4995203;28;20045;-65
2023/07/29 03:20:40;;;;;;;10.55;3.92;;;18.00;99.90;;;;;;4989842;28;20046;-65
2023/07/29 03:23:06;;;;;;;13.60;5.25;;;18.40;99.90;;;;;;4981829;28;20392;-64
2023/07/29 03:25:32;;;;;;;11.18;3.90;;;17.60;99.90;;;;;;4986995;28;20041;-65
2023/07/29 03:27:57;;;;;;;11.93;4.07;;;17.40;99.90;;;;;;4985534;28;20112;-66
2023/07/29 03:30:23;;;;;;;11.27;4.18;;;17.40;99.90;;;;;;4990868;28;20040;-65
2023/07/29 03:32:49;;;;;;;11.75;3.90;;;17.40;99.90;;;;;;4981936;28;20108;-66
2023/07/29 03:35:15;;;;;;;9.23;3.83;;;17.90;99.90;;;;;;4990161;28;20064;-65
2023/07/29 03:37:41;;;;;;;8.98;3.50;;;19.10;99.90;;;;;;4987120;28;20084;-65
2023/07/29 03:40:08;;;;;;;7.97;3.70;;;17.40;99.90;;;;;;4982498;28;20164;-65
2023/07/29 03:42:35;;;;;;;11.65;3.90;;;17.30;99.90;;;;;;4985374;28;20057;-65
2023/07/29 03:45:00;;;;;;;6.57;3.40;;;17.80;99.90;;;;;;4977254;28;20122;-65
2023/07/29 03:47:26;;;;;;;7.78;3.85;;;17.40;99.90;;;;;;4985060;28;20499;-65
2023/07/29 03:49:52;;;;;;;9.23;3.88;;;17.50;99.90;;;;;;4977763;28;20502;-65
2023/07/29 03:52:17;;;;;;;10.02;3.92;;;17.50;99.90;;;;;;4983394;28;20038;-65
2023/07/29 03:54:43;;;;;;;11.05;3.88;;;17.40;99.90;;;;;;4981308;28;20142;-66
2023/07/29 03:57:09;;;;;;;9.57;3.60;;;17.00;99.90;;;;;;4982567;28;20038;-65
2023/07/29 03:59:34;;;;;;;9.65;4.22;;;17.60;99.90;;;;;;4972781;28;20046;-65
2023/07/29 04:02:00;;;;;;;10.57;3.70;;;17.40;99.90;;;;;;4985750;28;20080;-65
2023/07/29 04:04:26;;;;;;;8.32;3.70;;;17.30;99.90;;;;;;4981168;28;20038;-65
2023/07/29 04:06:51;;;;;;;9.18;3.60;;;17.50;99.90;;;;;;4986886;28;20038;-64
2023/07/29 04:09:20;;;;;;;11.43;3.58;;;17.60;99.90;;;;;;4981896;28;20489;-65
2023/07/29 04:11:46;;;;;;;9.55;3.70;;;17.10;99.90;;;;;;4974246;28;20038;-65
2023/07/29 04:14:11;;;;;;;9.65;3.78;;;17.50;99.90;;;;;;4973444;28;20161;-64
2023/07/29 04:16:37;;;;;;;9.43;3.50;;;17.60;99.90;;;;;;4969919;28;20043;-64
2023/07/29 04:19:03;;;;;;;11.30;3.55;;;17.20;99.90;;;;;;4991630;28;20034;-64
2023/07/29 04:21:28;;;;;;;10.40;3.40;;;16.90;99.90;;;;;;4986514;28;20073;-65
2023/07/29 04:23:54;;;;;;;7.30;3.35;;;17.40;99.90;;;;;;4986405;28;20148;-64
2023/07/29 04:26:20;;;;;;;9.82;3.60;;;17.10;99.90;;;;;;4984193;28;20058;-65
2023/07/29 04:28:45;;;;;;;10.18;3.55;;;17.10;99.90;;;;;;4971612;28;20053;-64
2023/07/29 04:31:11;;;;;;;9.50;3.60;;;17.40;99.90;;;;;;4982602;28;20038;-65
2023/07/29 04:33:36;;;;;;;9.07;3.60;;;16.90;99.90;;;;;;4983790;28;20057;-65
2023/07/29 04:36:02;;;;;;;10.13;3.78;;;17.90;99.90;;;;;;4988502;28;20038;-65
2023/07/29 04:38:35;;;;;;;8.88;3.63;;;17.20;99.90;;;;;;4988932;28;20121;-65
2023/07/29 04:41:01;;;;;;;10.30;3.65;;;17.40;99.90;;;;;;4948829;28;1109678;-65
2023/07/29 04:43:28;;;;;;;7.20;3.67;;;17.00;99.90;;;;;;4981227;28;20121;-65
2023/07/29 04:45:54;;;;;;;10.02;3.58;;;17.70;99.90;;;;;;4984174;28;20043;-66
2023/07/29 04:48:20;;;;;;;11.15;3.47;;;16.80;99.90;;;;;;4989968;28;20034;-65
2023/07/29 04:50:46;;;;;;;11.10;3.65;;;17.10;99.90;;;;;;4983628;28;20035;-65
2023/07/29 04:53:11;;;;;;;10.85;3.20;;;16.80;99.90;;;;;;4982689;28;20550;-65
2023/07/29 04:55:37;;;;;;;10.77;4.15;;;17.10;99.90;;;;;;4984948;28;20092;-65
2023/07/29 04:58:02;;;;;;;7.10;2.95;;;17.80;99.90;;;;;;4982961;28;20197;-66
2023/07/29 05:00:28;;;;;;;9.55;3.42;;;17.30;99.90;;;;;;4981137;28;20061;-65
2023/07/29 05:02:53;;;;;;;10.70;3.40;;;17.00;99.90;;;;;;4987271;28;20045;-65
2023/07/29 05:05:19;;;;;;;10.65;3.92;;;17.30;99.90;;;;;;4991602;28;20030;-66
2023/07/29 05:07:45;;;;;;;8.77;3.35;;;16.80;99.90;;;;;;4983387;28;20481;-65
2023/07/29 05:10:11;;;;;;;7.90;3.30;;;17.40;99.90;;;;;;4993008;28;20449;-65
2023/07/29 05:12:37;;;;;;;8.48;3.25;;;17.50;99.90;;;;;;4992025;28;20125;-66
2023/07/29 05:15:03;;;;;;;9.70;3.45;;;16.90;99.90;;;;;;4981420;28;20117;-65
2023/07/29 05:17:28;;;;;;;9.38;3.00;;;17.30;99.90;;;;;;4989124;28;20038;-65
2023/07/29 05:19:54;;;;;;;10.90;4.43;;;18.00;99.90;;;;;;4976411;28;20053;-65
2023/07/29 05:22:20;;;;;;;9.75;3.47;;;17.40;99.90;;;;;;4987597;28;20125;-66
2023/07/29 05:24:46;;;;;;;12.02;4.22;;;17.90;99.90;;;;;;4989913;28;20519;-66
2023/07/29 05:27:11;;;;;;;9.95;3.60;;;17.60;99.90;;;;;;4980556;28;20031;-65
2023/07/29 05:29:37;;;;;;;8.35;3.47;;;17.40;99.90;;;;;;4984009;28;20042;-65
2023/07/29 05:32:03;;;;;;;8.90;4.03;;;17.20;99.90;;;;;;4989514;28;20049;-66
2023/07/29 05:34:28;;;;;;;9.60;3.72;;;17.50;99.90;;;;;;4990734;28;20436;-65
2023/07/29 05:36:54;;;;;;;10.65;4.30;;;17.50;99.90;;;;;;4983705;28;20050;-65
2023/07/29 05:39:19;;;;;;;11.77;3.63;;;17.30;99.90;;;;;;4986760;28;20153;-65
2023/07/29 05:41:46;;;;;;;8.27;3.30;;;17.60;99.90;;;;;;4987170;28;20428;-65
2023/07/29 05:44:12;;;;;;;8.80;3.42;;;17.30;99.90;;;;;;4981587;28;20062;-65
2023/07/29 05:46:37;;;;;;;11.10;3.70;;;17.70;99.90;;;;;;4989939;28;20555;-65
2023/07/29 05:49:03;;;;;;;9.18;3.35;;;17.80;99.90;;;;;;4975659;28;20060;-65
2023/07/29 05:51:29;;;;;;;9.52;3.45;;;17.50;99.90;;;;;;4988863;28;20038;-65
2023/07/29 05:53:54;;;;;;;10.15;3.85;;;17.40;99.90;;;;;;4979639;28;20043;-66
2023/07/29 05:56:20;;;;;;;10.80;3.88;;;17.50;99.90;;;;;;4976251;28;20050;-65
2023/07/29 05:58:45;;;;;;;12.20;4.22;;;17.70;99.90;;;;;;4999136;28;20409;-66
2023/07/29 06:01:11;;;;;;;11.90;4.38;;;17.50;99.90;;;;;;4983856;28;20443;-66
2023/07/29 06:03:37;;;;;;;11.43;4.13;;;17.80;99.90;;;;;;4967592;28;20211;-65
2023/07/29 06:06:03;;;;;;;16.25;4.53;;;18.30;99.90;;;;;;4980166;28;20058;-65
2023/07/29 06:08:29;;;;;;;10.73;4.13;;;18.60;99.90;;;;;;4986219;28;20045;-66
2023/07/29 06:10:54;;;;;;;12.10;3.97;;;18.30;99.90;;;;;;4981522;28;20043;-65
2023/07/29 06:13:20;;;;;;;9.43;3.92;;;17.90;99.90;;;;;;4976457;28;20460;-66
2023/07/29 06:15:46;;;;;;;9.25;3.67;;;18.60;99.90;;;;;;4974980;28;20038;-65
2023/07/29 06:18:11;;;;;;;8.75;3.70;;;18.60;99.90;;;;;;4974431;28;20137;-65
2023/07/29 06:20:37;;;;;;;8.63;4.22;;;18.20;99.90;;;;;;4969766;28;20138;-65
2023/07/29 06:23:03;;;;;;;10.85;3.60;;;18.00;99.90;;;;;;4976194;28;20523;-66
2023/07/29 06:25:29;;;;;;;12.15;3.65;;;18.20;99.90;;;;;;4976830;28;20114;-66
2023/07/29 06:27:55;;;;;;;9.35;4.20;;;19.00;99.90;;;;;;4980309;28;20118;-65
2023/07/29 06:30:20;;;;;;;8.15;3.42;;;18.20;99.90;;;;;;4983711;28;20112;-65
2023/07/29 06:32:46;;;;;;;8.25;3.53;;;18.80;99.90;;;;;;4990837;28;20046;-65
2023/07/29 06:35:12;;;;;;;8.38;3.38;;;18.90;99.90;;;;;;4984468;28;20399;-65
2023/07/29 06:37:38;;;;;;;10.20;3.65;;;18.70;99.90;;;;;;4980271;28;20397;-65
2023/07/29 06:40:04;;;;;;;7.53;3.50;;;18.50;68.70;;;;;;4980294;28;20070;-65
2023/07/29 06:42:29;;;;;;;12.30;4.50;;;18.70;54.40;;;;;;4984250;28;20667;-65
2023/07/29 06:44:55;;;;;;;7.70;3.38;;;19.20;21.90;;;;;;4978704;28;20121;-65
2023/07/29 06:47:20;;;;;;;12.40;3.80;;;19.10;3.60;;;;;;4974565;28;20074;-65
2023/07/29 06:49:47;;;;;;;12.55;4.75;;;19.40;7.50;;;;;;4977080;28;20394;-65
2023/07/29 06:52:12;;;;;;;10.50;4.05;;;19.10;1.00;;;;;;4975952;28;20121;-65
2023/07/29 06:54:38;;;;;;;11.75;3.88;;;18.70;1.00;;;;;;4995070;28;20451;-65
2023/07/29 06:57:04;;;;;;;12.10;4.10;;;19.40;1.00;;;;;;4987609;28;20420;-66
2023/07/29 06:59:29;;;;;;;10.70;4.20;;;19.10;1.00;;;;;;4996161;28;20420;-65
2023/07/29 07:01:55;;;;;;;11.27;4.15;;;19.00;1.00;;;;;;4985026;28;20034;-65
2023/07/29 07:04:21;;;;;;;10.40;3.80;;;19.20;1.00;;;;;;4974941;28;20448;-65
2023/07/29 07:06:46;;;;;;;9.48;3.70;;;18.60;9.80;;;;;;4984095;28;20043;-65
2023/07/29 07:09:12;;;;;;;10.27;4.03;;;19.20;8.30;;;;;;4977317;28;20037;-65
2023/07/29 07:11:38;;;;;;;11.25;4.13;;;19.20;5.70;;;;;;4988335;28;20400;-66
2023/07/29 07:14:03;;;;;;;10.55;3.78;;;18.90;8.90;;;;;;4979481;28;20054;-66
2023/07/29 07:16:30;;;;;;;10.23;3.30;;;19.50;1.00;;;;;;4988960;28;20388;-66
2023/07/29 07:18:56;;;;;;;14.18;3.80;;;18.80;1.00;;;;;;4974544;28;20050;-66
2023/07/29 07:21:22;;;;;;;10.98;3.88;;;19.50;1.00;;;;;;4987024;28;20038;-66
2023/07/29 07:23:50;;;;;;;13.27;3.75;;;19.40;1.00;;;;;;4990094;28;20511;-66
2023/07/29 07:26:15;;;;;;;13.02;3.88;;;18.80;1.00;;;;;;4980812;28;20508;-67
2023/07/29 07:28:41;;;;;;;9.35;3.63;;;19.40;1.00;;;;;;4988600;28;20038;-66
2023/07/29 07:31:06;;;;;;;8.23;3.45;;;19.50;1.00;;;;;;4989022;28;20061;-66
2023/07/29 07:33:32;;;;;;;9.20;2.78;;;19.40;1.00;;;;;;4983139;28;20061;-66
2023/07/29 07:35:58;;;;;;;8.38;3.03;;;19.40;1.00;;;;;;4981223;28;20034;-66
2023/07/29 07:38:23;;;;;;;10.60;4.30;;;18.90;1.00;;;;;;4980356;28;20273;-66
2023/07/29 07:40:56;;;;;;;9.50;4.00;;;19.30;1.00;;;;;;4989427;28;20129;-66
2023/07/29 07:43:23;;;;;;;10.10;3.78;;;19.70;1.00;;;;;;4978677;28;20460;-67
2023/07/29 07:45:48;;;;;;;6.88;2.92;;;19.40;1.00;;;;;;4978361;28;20039;-66
2023/07/29 07:48:16;;;;;;;7.05;2.88;;;19.30;1.00;;;;;;4986964;28;20043;-66
2023/07/29 07:50:42;;;;;;;10.32;3.78;;;20.80;1.00;;;;;;4984597;28;20042;-65
2023/07/29 07:53:08;;;;;;;9.88;3.45;;;19.50;1.00;;;;;;4976067;28;20034;-66
2023/07/29 07:55:33;;;;;;;10.25;3.45;;;19.70;1.00;;;;;;4984345;28;20035;-66
2023/07/29 07:57:59;;;;;;;8.88;2.88;;;19.40;1.00;;;;;;4987127;28;20092;-66
2023/07/29 08:00:24;;;;;;;12.15;3.08;;;19.30;1.00;;;;;;4978467;28;20043;-66
2023/07/29 08:02:50;;;;;;;11.00;3.00;;;19.20;1.00;;;;;;4978469;28;20039;-67
2023/07/29 08:05:16;;;;;;;8.68;2.85;;;19.40;1.00;;;;;;4982935;28;20041;-66
2023/07/29 08:07:41;;;;;;;10.15;3.08;;;19.30;1.00;;;;;;4974370;28;20042;-66
2023/07/29 08:10:07;;;;;;;10.85;3.00;;;19.70;1.00;;;;;;5002023;28;20065;-66
2023/07/29 08:12:33;;;;;;;8.45;3.17;;;19.80;1.00;;;;;;4986298;28;20038;-67
2023/07/29 08:14:59;;;;;;;8.45;3.13;;;19.60;1.00;;;;;;4985876;28;20046;-66
2023/07/29 08:17:24;;;;;;;8.60;2.83;;;19.90;1.00;;;;;;4981047;28;20049;-67
2023/07/29 08:19:50;;;;;;;8.85;2.72;;;19.40;1.00;;;;;;4975727;28;20275;-66
2023/07/29 08:22:17;;;;;;;7.40;3.08;;;19.60;1.00;;;;;;4983112;28;20061;-67
2023/07/29 08:24:43;;;;;;;7.43;2.92;;;19.60;1.00;;;;;;4977775;28;20518;-66
2023/07/29 08:27:08;;;;;;;11.40;2.60;;;19.90;1.00;;;;;;4982047;28;20409;-66
2023/07/29 08:29:34;;;;;;;8.65;2.95;;;19.70;1.00;;;;;;4978061;28;20038;-66
2023/07/29 08:32:00;;;;;;;11.13;3.80;;;19.60;99.90;;;;;;4981838;28;20043;-66
2023/07/29 08:34:25;;;;;;;8.85;2.88;;;19.40;1.00;;;;;;4987158;28;20038;-68
2023/07/29 08:36:51;;;;;;;8.32;2.67;;;19.80;1.00;;;;;;4987212;28;20222;-67
2023/07/29 08:39:17;;;;;;;5.63;2.70;;;19.20;1.00;;;;;;4980641;28;20069;-67
2023/07/29 08:41:56;;;;;;;9.57;2.95;;;19.30;1.00;;;;;;4986892;28;20043;-68
2023/07/29 08:44:23;;;;;;;7.63;2.10;;;19.50;1.00;;;;;;4982066;28;20038;-68
2023/07/29 08:46:50;;;;;;;10.85;2.97;;;19.50;1.00;;;;;;4980875;28;20042;-67
2023/07/29 08:49:19;;;;;;;5.78;1.90;;;20.40;1.00;;;;;;4980378;28;20101;-68
2023/07/29 08:51:50;;;;;;;10.93;3.42;;;;;;;;;;4989348;28;20570;-67
2023/07/29 08:54:16;;;;;;;9.05;2.60;;;20.20;99.90;;;;;;4987980;28;20097;-68
2023/07/29 08:56:43;;;;;;;6.13;2.58;;;19.90;1.00;;;;;;4985732;28;20046;-68
2023/07/29 08:59:10;;;;;;;9.13;2.58;;;19.30;1.00;;;;;;4987745;28;20070;-68
2023/07/29 09:01:39;;;;;;;5.28;2.45;;;20.10;99.90;;;;;;4978902;28;20046;-66
2023/07/29 09:04:05;;;;;;;5.28;2.05;;;20.20;99.90;;;;;;4978698;28;20031;-69
2023/07/29 09:06:31;;;;;;;6.80;2.17;;;20.20;99.90;;;;;;4984917;28;20042;-63
2023/07/29 09:08:59;;;;;;;6.85;2.03;;;19.40;99.90;;;;;;4981929;28;20069;-63
2023/07/29 09:11:27;;;;;;;6.32;2.20;;;19.40;1.00;;;;;;4988906;28;20085;-64
2023/07/29 09:13:53;;;;;;;8.98;2.35;;;19.00;1.00;;;;;;4980459;28;20030;-64
2023/07/29 09:16:20;;;;;;;9.32;3.28;;;;;;;;;;4989545;28;20040;-64
2023/07/29 09:18:50;;;;;;;8.68;2.65;;;19.10;1.00;;;;;;4988171;28;20038;-63
2023/07/29 09:21:17;;;;;;;6.07;2.50;;;19.20;1.00;;;;;;4981686;28;20049;-64
2023/07/29 09:23:44;;;;;;;8.90;2.70;;;19.80;1.00;;;;;;4991540;28;20039;-64
2023/07/29 09:26:11;;;;;;;8.23;2.40;;;19.80;1.00;;;;;;4992064;28;20048;-64
2023/07/29 09:28:40;;;;;;;5.22;2.10;;;19.80;99.90;;;;;;4986954;28;20097;-64
2023/07/29 09:31:07;;;;;;;8.23;2.25;;;19.80;99.90;;;;;;4986832;28;20046;-64
2023/07/29 09:33:36;;;;;;;7.28;2.20;;;20.00;99.90;;;;;;4981262;28;20043;-64
2023/07/29 09:36:09;;;;;;;8.98;2.50;;;20.40;99.90;;;;;;4981174;28;20047;-63
2023/07/29 09:38:35;;;;;;;7.53;2.13;;;20.10;99.90;;;;;;4983463;28;20030;-64
2023/07/29 09:41:01;;;;;;;7.57;2.55;;;20.60;99.90;;;;;;4971395;28;20051;-63
2023/07/29 09:43:42;;;;;;;5.72;1.90;;;20.60;99.90;;;;;;4973525;28;20038;-63
2023/07/29 09:46:08;;;;;;;9.32;2.13;;;20.60;99.90;;;;;;4986982;28;20044;-63
2023/07/29 09:48:38;;;;;;;9.10;2.90;;;20.40;99.90;;;;;;4991724;28;20034;-63
2023/07/29 09:51:15;;;;;;;5.65;2.13;;;20.90;99.90;;;;;;4980352;28;20046;-63
2023/07/29 09:53:46;;;;;;;6.60;2.00;;;20.40;99.90;;;;;;4989836;28;20053;-63
2023/07/29 09:56:12;;;;;;;7.38;2.58;;;20.90;99.90;;;;;;4991816;28;20038;-64
2023/07/29 09:58:38;;;;;;;5.22;2.00;;;20.70;99.90;;;;;;4983923;28;20407;-64
2023/07/29 10:01:07;;;;;;;7.78;2.00;;;21.70;99.90;;;;;;4992503;28;20042;-64
2023/07/29 10:03:35;;;;;;;4.90;1.60;;;20.80;99.90;;;;;;4969498;28;20050;-64
2023/07/29 10:06:05;;;;;;;6.22;2.30;;;21.20;99.90;;;;;;4992009;28;20042;-63
2023/07/29 10:08:32;;;;;;;5.32;1.77;;;21.30;99.90;;;;;;4991247;28;20034;-63
2023/07/29 10:11:01;;;;;;;5.25;1.90;;;21.20;99.90;;;;;;4991911;28;20048;-64
2023/07/29 10:13:27;;;;;;;6.40;1.95;;;20.90;99.90;;;;;;4986369;28;20042;-63
2023/07/29 10:15:54;;;;;;;9.35;2.42;;;21.00;99.90;;;;;;4990083;28;20057;-64
2023/07/29 10:18:21;;;;;;;6.03;1.90;;;21.20;99.90;;;;;;4991214;28;20073;-64
2023/07/29 10:20:50;;;;;;;4.95;1.80;;;21.60;99.90;;;;;;4990468;28;20044;-64
2023/07/29 10:23:17;;;;;;;5.47;1.60;;;21.30;99.90;;;;;;4985014;28;20042;-64
2023/07/29 10:25:49;;;;;;;4.50;1.60;;;21.60;99.90;;;;;;4980447;28;20044;-64
2023/07/29 10:28:18;;;;;;;3.97;1.30;;;21.40;99.90;;;;;;4990855;28;20034;-64
2023/07/29 10:30:44;;;;;;;3.60;1.40;;;21.50;99.90;;;;;;4991261;28;20146;-64
2023/07/29 10:33:10;;;;;;;5.78;1.70;;;21.50;36.50;;;;;;4983603;28;20403;-64
2023/07/29 10:35:37;;;;;;;5.63;1.52;;;21.10;75.50;;;;;;4989333;28;20042;-64
2023/07/29 10:38:07;;;;;;;4.22;1.30;;;21.50;13.50;;;;;;4991033;28;20439;-64
2023/07/29 10:40:51;;;;;;;4.10;1.38;;;21.60;1.00;;;;;;4978952;28;20057;-64
2023/07/29 10:43:26;;;;;;;;;;;21.40;31.10;;;;;;4983280;28;20038;-63
2023/07/29 10:45:52;;;;;;;5.03;1.98;;;21.80;35.40;;;;;;4988212;28;19917;-64
2023/07/29 10:48:42;;;;;;;5.95;1.88;;;21.50;7.40;;;;;;4988534;28;20084;-64
2023/07/29 10:51:29;;;;;;;4.13;1.45;;;21.70;1.00;;;;;;4987342;28;20173;-64
2023/07/29 10:53:56;;;;;;;5.47;1.83;;;21.90;13.10;;;;;;4986126;28;20053;-64
2023/07/29 10:56:35;;;;;;;8.48;2.10;;;21.90;21.70;;;;;;4978201;28;20043;-64
2023/07/29 10:59:12;;;;;;;6.05;1.80;;;21.30;50.30;;;;;;4977971;28;20050;-64
2023/07/29 11:01:43;;;;;;;5.18;2.10;;;21.60;49.40;;;;;;4989122;28;20491;-64
2023/07/29 11:04:23;;;;;;;5.22;2.20;;;21.70;19.50;;;;;;4991003;28;20041;-64
2023/07/29 11:07:04;;;;;;;6.97;2.00;;;21.10;36.40;;;;;;4990462;28;20050;-63
2023/07/29 11:09:50;;;;;;;5.30;1.90;;;20.90;58.20;;;;;;4982201;28;20042;-64
2023/07/29 11:12:50;;;;;;;5.85;2.33;;;20.30;99.90;;;;;;4982342;28;20150;-63
2023/07/29 11:15:20;;;;;;;5.53;2.13;;;20.00;99.90;;;;;;4988857;28;20046;-64
2023/07/29 11:17:48;;;;;;;4.93;2.10;;;20.00;99.90;;;;;;4976567;28;20042;-64
2023/07/29 11:20:14;;;;;;;5.93;2.10;;;20.00;99.90;;;;;;4990381;28;20050;-64
2023/07/29 11:22:41;;;;;;;5.32;1.92;;;19.30;99.90;;;;;;4986813;28;20054;-64
2023/07/29 11:25:11;;;;;;;5.47;1.88;;;19.90;99.90;;;;;;4982305;28;20042;-64
2023/07/29 11:27:38;;;;;;;5.70;2.10;;;19.90;99.90;;;;;;4979241;28;20057;-64
2023/07/29 11:30:06;;;;;;;5.95;2.10;;;19.80;99.90;;;;;;4989932;28;20141;-63
2023/07/29 11:32:32;;;;;;;6.72;2.00;;;19.90;99.90;;;;;;4989984;28;20042;-63
2023/07/29 11:35:07;;;;;;;9.23;2.38;;;20.50;99.90;;;;;;4993889;28;20126;-64
2023/07/29 11:37:36;;;;;;;;;;;20.20;99.90;;;;;;4982360;28;20043;-64
2023/07/29 11:40:02;;;;;;;5.85;1.98;;;20.00;99.90;;;;;;4992683;28;20379;-64
2023/07/29 11:42:28;;;;;;;6.85;1.90;;;20.40;99.90;;;;;;4991704;28;20042;-65
2023/07/29 11:44:57;;;;;;;4.18;1.52;;;21.10;99.90;;;;;;4989980;28;20512;-64
2023/07/29 11:47:23;;;;;;;6.22;1.70;;;21.30;1.00;;;;;;4963702;28;20077;-64
2023/07/29 11:49:49;;;;;;;5.18;1.85;;;20.80;1.00;;;;;;4976193;28;20061;-63
2023/07/29 11:52:18;;;;;;;6.70;1.85;;;21.30;1.00;;;;;;4988781;28;20100;-64
2023/07/29 11:54:44;;;;;;;5.32;1.85;;;20.90;1.00;;;;;;4977598;28;20551;-64
2023/07/29 11:57:10;;;;;;;6.07;2.40;;;20.80;1.00;;;;;;4989373;28;20041;-65
2023/07/29 11:59:37;;;;;;;7.97;1.80;;;20.80;1.00;;;;;;4981613;28;20045;-63
2023/07/29 12:02:11;;;;;;;6.75;1.65;;;20.40;1.00;;;;;;4992216;28;20045;-64
2023/07/29 12:04:38;;;;;;;6.40;2.10;;;21.00;1.00;;;;;;4979533;28;20088;-64
2023/07/29 12:07:04;;;;;;;6.03;1.80;;;21.00;13.60;;;;;;4966803;28;20101;-64
2023/07/29 12:09:30;;;;;;;8.70;1.77;;;21.00;19.10;;;;;;4988232;28;20049;-64
2023/07/29 12:11:57;;;;;;;9.32;1.83;;;21.00;24.00;;;;;;4985208;28;20408;-64
2023/07/29 12:14:26;;;;;;;5.88;2.28;;;20.60;58.20;;;;;;4980561;28;20045;-64
2023/07/29 12:16:53;;;;;;;6.57;1.80;;;20.80;55.40;;;;;;4988240;28;20046;-62
2023/07/29 12:19:19;;;;;;;6.05;1.75;;;20.80;22.80;;;;;;4985999;28;20385;-64
2023/07/29 12:21:45;;;;;;;5.10;1.90;;;20.50;1.00;;;;;;4986457;28;20116;-63
2023/07/29 12:24:14;;;;;;;8.23;1.77;;;21.30;1.00;;;;;;4984872;28;20042;-63
2023/07/29 12:26:41;;;;;;;5.65;1.80;;;20.90;1.00;;;;;;4986927;28;20488;-64
2023/07/29 12:29:19;;;;;;;5.80;1.95;;;20.80;1.00;;;;;;4985044;28;20101;-64
2023/07/29 12:31:45;;;;;;;7.60;1.80;;;21.30;1.00;;;;;;4987553;28;20046;-64
2023/07/29 12:34:18;;;;;;;6.80;2.05;;;21.00;1.00;;;;;;4985792;28;20500;-65
2023/07/29 12:36:48;;;;;;;5.82;2.33;;;21.20;99.90;;;;;;4984213;28;20492;-64
2023/07/29 12:39:28;;;;;;;7.13;2.28;;;21.70;99.90;;;;;;4983013;28;20031;-64
2023/07/29 12:41:56;;;;;;;7.35;2.40;;;21.80;99.90;;;;;;4987011;28;20460;-64
2023/07/29 12:44:23;;;;;;;8.13;2.53;;;21.60;99.90;;;;;;4985659;28;20565;-64
2023/07/29 12:46:49;;;;;;;7.03;2.45;;;22.20;99.90;;;;;;4986267;28;20073;-64